createdAt,value
2019-01-10T00:00:01.151Z,17
2019-01-10T00:02:01.092Z,16
2019-01-10T00:03:01.093Z,18
2019-01-10T00:06:01.115Z,19
2019-01-10T00:08:01.089Z,18
2019-01-10T00:10:01.094Z,19
2019-01-10T00:11:01.134Z,18
2019-01-10T00:12:01.090Z,17
2019-01-10T00:14:01.090Z,16
2019-01-10T00:15:01.093Z,14
2019-01-10T00:18:01.092Z,12
2019-01-10T00:19:01.091Z,13
2019-01-10T00:22:01.127Z,14
2019-01-10T00:23:01.092Z,18
2019-01-10T00:28:01.124Z,15
2019-01-10T00:29:01.177Z,13
2019-01-10T00:30:01.105Z,14
2019-01-10T00:31:01.094Z,15
2019-01-10T00:34:01.129Z,16
2019-01-10T00:35:01.095Z,15
2019-01-10T00:38:01.081Z,18
2019-01-10T00:40:01.121Z,19
2019-01-10T00:41:01.084Z,18
2019-01-10T00:42:01.083Z,20
2019-01-10T00:43:02.384Z,18
2019-01-10T00:45:01.135Z,17
2019-01-10T00:46:01.079Z,18
2019-01-10T00:47:01.080Z,16
2019-01-10T00:48:01.080Z,13
2019-01-10T00:49:01.082Z,15
2019-01-10T00:50:01.083Z,14
2019-01-10T00:52:01.080Z,15
2019-01-10T00:53:01.080Z,17
2019-01-10T00:56:02.375Z,16
2019-01-10T00:57:01.084Z,17
2019-01-10T00:58:01.214Z,16
2019-01-10T01:00:01.088Z,17
2019-01-10T01:01:01.081Z,16
2019-01-10T01:05:01.156Z,14
2019-01-10T01:06:01.087Z,15
2019-01-10T01:07:01.086Z,16
2019-01-10T01:10:01.122Z,17
2019-01-10T01:11:01.086Z,16
2019-01-10T01:13:01.174Z,17
2019-01-10T01:14:01.111Z,15
2019-01-10T01:15:01.084Z,14
2019-01-10T01:17:02.190Z,13
2019-01-10T01:18:01.112Z,12
2019-01-10T01:19:01.084Z,14
2019-01-10T01:20:01.087Z,15
2019-01-10T01:21:01.175Z,16
2019-01-10T01:22:01.084Z,14
2019-01-10T01:23:01.111Z,15
2019-01-10T01:24:01.085Z,14
2019-01-10T01:25:01.090Z,16
2019-01-10T01:26:02.203Z,17
2019-01-10T01:28:01.117Z,18
2019-01-10T01:30:01.195Z,16
2019-01-10T01:31:01.093Z,15
2019-01-10T01:32:01.086Z,17
2019-01-10T01:33:01.113Z,15
2019-01-10T01:35:01.091Z,17
2019-01-10T01:37:01.086Z,16
2019-01-10T01:40:01.116Z,15
2019-01-10T01:41:01.091Z,16
2019-01-10T01:43:07.235Z,19
2019-01-10T01:44:01.121Z,18
2019-01-10T01:45:01.100Z,18
2019-01-10T01:46:01.090Z,19
2019-01-10T01:48:01.118Z,17
2019-01-10T01:51:01.090Z,16
2019-01-10T01:54:01.118Z,15
2019-01-10T01:55:01.089Z,16
2019-01-10T01:57:01.113Z,15
2019-01-10T01:58:01.150Z,16
2019-01-10T01:59:01.088Z,17
2019-01-10T02:00:01.108Z,17
2019-01-10T02:01:01.087Z,16
2019-01-10T02:02:01.120Z,19
2019-01-10T02:03:01.089Z,20
2019-01-10T02:05:01.089Z,21
2019-01-10T02:06:01.123Z,22
2019-01-10T02:07:01.088Z,20
2019-01-10T02:08:01.089Z,19
2019-01-10T02:09:01.088Z,18
2019-01-10T02:10:01.089Z,16
2019-01-10T02:11:01.088Z,15
2019-01-10T02:14:01.088Z,14
2019-01-10T02:15:01.090Z,14
2019-01-10T02:17:01.089Z,16
2019-01-10T02:19:01.090Z,19
2019-01-10T02:20:01.090Z,20
2019-01-10T02:21:01.090Z,19
2019-01-10T02:23:01.093Z,20
2019-01-10T02:24:01.090Z,18
2019-01-10T02:25:01.089Z,17
2019-01-10T02:26:01.403Z,16
2019-01-10T02:28:01.092Z,15
2019-01-10T02:29:01.095Z,14
2019-01-10T02:30:01.115Z,14
2019-01-10T02:32:01.153Z,15
2019-01-10T02:34:01.097Z,16
2019-01-10T02:40:01.138Z,17
2019-01-10T02:41:02.738Z,19
2019-01-10T02:42:01.095Z,18
2019-01-10T02:43:02.223Z,17
2019-01-10T02:44:01.095Z,16
2019-01-10T02:45:01.103Z,15
2019-01-10T02:48:01.093Z,14
2019-01-10T02:49:01.094Z,16
2019-01-10T02:50:01.096Z,19
2019-01-10T02:51:01.203Z,17
2019-01-10T02:52:01.099Z,19
2019-01-10T02:53:01.095Z,20
2019-01-10T02:54:01.105Z,19
2019-01-10T02:55:01.109Z,17
2019-01-10T02:58:01.083Z,16
2019-01-10T02:59:01.084Z,17
2019-01-10T03:00:01.092Z,18
2019-01-10T03:01:01.080Z,16
2019-01-10T03:03:01.090Z,18
2019-01-10T03:04:01.082Z,20
2019-01-10T03:05:01.080Z,18
2019-01-10T03:06:01.079Z,20
2019-01-10T03:07:01.082Z,19
2019-01-10T03:08:01.080Z,18
2019-01-10T03:09:02.093Z,17
2019-01-10T03:10:01.083Z,18
2019-01-10T03:11:01.082Z,19
2019-01-10T03:12:01.104Z,20
2019-01-10T03:13:01.081Z,19
2019-01-10T03:14:01.078Z,18
2019-01-10T03:15:01.114Z,16
2019-01-10T03:17:01.080Z,14
2019-01-10T03:19:01.080Z,15
2019-01-10T03:20:01.109Z,16
2019-01-10T03:21:01.082Z,15
2019-01-10T03:22:01.081Z,17
2019-01-10T03:23:01.080Z,18
2019-01-10T03:24:01.082Z,17
2019-01-10T03:25:01.107Z,16
2019-01-10T03:27:01.082Z,15
2019-01-10T03:28:01.080Z,16
2019-01-10T03:29:01.087Z,15
2019-01-10T03:30:01.126Z,15
2019-01-10T03:31:01.083Z,16
2019-01-10T03:33:01.091Z,15
2019-01-10T03:37:01.081Z,16
2019-01-10T03:38:01.082Z,19
2019-01-10T03:39:01.108Z,20
2019-01-10T03:40:01.082Z,19
2019-01-10T03:42:01.087Z,18
2019-01-10T03:43:02.264Z,16
2019-01-10T03:44:01.124Z,15
2019-01-10T03:45:01.084Z,16
2019-01-10T03:47:01.095Z,15
2019-01-10T03:48:01.081Z,16
2019-01-10T03:49:01.089Z,17
2019-01-10T03:51:01.120Z,15
2019-01-10T03:52:01.081Z,16
2019-01-10T03:53:01.083Z,18
2019-01-10T03:54:01.083Z,16
2019-01-10T03:55:01.083Z,15
2019-01-10T03:56:02.095Z,16
2019-01-10T03:57:01.083Z,18
2019-01-10T03:58:01.152Z,17
2019-01-10T03:59:01.088Z,18
2019-01-10T04:00:01.086Z,17
2019-01-10T04:01:01.089Z,18
2019-01-10T04:03:01.085Z,17
2019-01-10T04:04:01.086Z,18
2019-01-10T04:07:01.084Z,19
2019-01-10T04:09:01.084Z,18
2019-01-10T04:11:01.084Z,16
2019-01-10T04:12:03.315Z,13
2019-01-10T04:13:01.087Z,14
2019-01-10T04:14:01.119Z,15
2019-01-10T04:15:01.090Z,16
2019-01-10T04:17:01.084Z,17
2019-01-10T04:20:01.088Z,15
2019-01-10T04:21:01.087Z,16
2019-01-10T04:23:01.087Z,15
2019-01-10T04:25:01.226Z,18
2019-01-10T04:26:01.085Z,17
2019-01-10T04:27:01.087Z,18
2019-01-10T04:28:01.087Z,19
2019-01-10T04:29:01.118Z,21
2019-01-10T04:30:01.093Z,18
2019-01-10T04:32:01.091Z,17
2019-01-10T04:34:01.088Z,15
2019-01-10T04:36:01.095Z,14
2019-01-10T04:37:01.091Z,17
2019-01-10T04:38:01.095Z,15
2019-01-10T04:41:01.115Z,18
2019-01-10T04:42:01.090Z,16
2019-01-10T04:43:02.007Z,19
2019-01-10T04:44:06.883Z,20
2019-01-10T04:45:01.101Z,21
2019-01-10T04:46:01.117Z,18
2019-01-10T04:48:01.091Z,16
2019-01-10T04:49:01.096Z,14
2019-01-10T04:51:01.120Z,15
2019-01-10T04:52:01.158Z,14
2019-01-10T04:53:01.093Z,15
2019-01-10T04:54:01.097Z,16
2019-01-10T04:55:01.100Z,17
2019-01-10T04:58:01.095Z,16
2019-01-10T04:59:01.097Z,18
2019-01-10T05:00:01.166Z,17
2019-01-10T05:01:01.121Z,18
2019-01-10T05:02:02.120Z,17
2019-01-10T05:03:01.096Z,16
2019-01-10T05:04:01.164Z,14
2019-01-10T05:05:01.851Z,13
2019-01-10T05:06:01.134Z,12
2019-01-10T05:07:01.099Z,13
2019-01-10T05:08:01.098Z,15
2019-01-10T05:09:01.098Z,16
2019-01-10T05:10:01.170Z,17
2019-01-10T05:11:01.139Z,18
2019-01-10T05:13:02.079Z,16
2019-01-10T05:15:01.105Z,16
2019-01-10T05:16:01.134Z,15
2019-01-10T05:17:01.166Z,14
2019-01-10T05:21:01.084Z,13
2019-01-10T05:22:01.084Z,14
2019-01-10T05:24:01.086Z,15
2019-01-10T05:25:01.088Z,14
2019-01-10T05:26:01.158Z,15
2019-01-10T05:27:01.113Z,16
2019-01-10T05:29:01.458Z,15
2019-01-10T05:30:01.086Z,16
2019-01-10T05:31:01.086Z,15
2019-01-10T05:32:02.501Z,14
2019-01-10T05:33:01.089Z,13
2019-01-10T05:34:01.088Z,14
2019-01-10T05:35:01.145Z,15
2019-01-10T05:38:01.090Z,16
2019-01-10T05:40:01.090Z,17
2019-01-10T05:42:01.097Z,18
2019-01-10T05:43:01.094Z,19
2019-01-10T05:45:01.193Z,19
2019-01-10T05:46:02.162Z,18
2019-01-10T05:47:01.099Z,17
2019-01-10T05:48:01.093Z,16
2019-01-10T05:50:01.094Z,17
2019-01-10T05:51:01.095Z,18
2019-01-10T05:52:01.093Z,19
2019-01-10T05:55:01.123Z,17
2019-01-10T05:56:01.095Z,16
2019-01-10T05:57:01.090Z,17
2019-01-10T05:58:01.088Z,16
2019-01-10T06:00:01.094Z,16
2019-01-10T06:01:01.091Z,15
2019-01-10T06:02:01.087Z,14
2019-01-10T06:04:01.086Z,13
2019-01-10T06:05:01.085Z,15
2019-01-10T06:06:01.112Z,17
2019-01-10T06:07:01.085Z,15
2019-01-10T06:08:01.088Z,16
2019-01-10T06:10:01.087Z,15
2019-01-10T06:11:01.286Z,14
2019-01-10T06:12:01.087Z,15
2019-01-10T06:15:01.087Z,14
2019-01-10T06:16:02.291Z,15
2019-01-10T06:18:01.086Z,16
2019-01-10T06:19:01.090Z,17
2019-01-10T06:20:01.087Z,16
2019-01-10T06:23:01.113Z,15
2019-01-10T06:24:01.090Z,16
2019-01-10T06:25:01.085Z,17
2019-01-10T06:27:01.090Z,16
2019-01-10T06:28:01.121Z,17
2019-01-10T06:29:02.112Z,15
2019-01-10T06:30:01.091Z,15
2019-01-10T06:31:01.086Z,16
2019-01-10T06:33:01.089Z,15
2019-01-10T06:34:01.121Z,16
2019-01-10T06:36:01.089Z,15
2019-01-10T06:38:01.090Z,16
2019-01-10T06:39:01.088Z,15
2019-01-10T06:40:01.125Z,14
2019-01-10T06:44:01.097Z,16
2019-01-10T06:45:01.090Z,18
2019-01-10T06:48:01.096Z,17
2019-01-10T06:49:01.092Z,16
2019-01-10T06:50:01.091Z,15
2019-01-10T06:54:01.095Z,17
2019-01-10T06:55:01.098Z,18
2019-01-10T06:56:01.093Z,19
2019-01-10T06:57:06.101Z,20
2019-01-10T06:59:01.093Z,18
2019-01-10T07:00:01.094Z,17
2019-01-10T07:01:01.095Z,16
2019-01-10T07:05:01.082Z,17
2019-01-10T07:07:01.108Z,18
2019-01-10T07:08:01.081Z,17
2019-01-10T07:10:01.080Z,16
2019-01-10T07:11:01.081Z,15
2019-01-10T07:12:01.113Z,16
2019-01-10T07:14:01.081Z,17
2019-01-10T07:15:02.104Z,17
2019-01-10T07:16:01.082Z,18
2019-01-10T07:17:01.083Z,16
2019-01-10T07:18:01.086Z,17
2019-01-10T07:19:01.082Z,15
2019-01-10T07:22:01.082Z,16
2019-01-10T07:23:01.092Z,15
2019-01-10T07:24:01.082Z,16
2019-01-10T07:26:01.175Z,15
2019-01-10T07:29:01.088Z,16
2019-01-10T07:30:01.083Z,16
2019-01-10T07:31:01.086Z,15
2019-01-10T07:32:06.094Z,14
2019-01-10T07:34:01.094Z,13
2019-01-10T07:37:12.546Z,14
2019-01-10T07:41:01.108Z,15
2019-01-10T07:43:01.090Z,16
2019-01-10T07:44:01.091Z,17
2019-01-10T07:45:02.690Z,17
2019-01-10T07:46:01.090Z,16
2019-01-10T07:47:08.121Z,17
2019-01-10T07:49:01.092Z,16
2019-01-10T07:51:01.091Z,17
2019-01-10T07:52:06.165Z,16
2019-01-10T07:53:02.110Z,15
2019-01-10T07:54:01.090Z,14
2019-01-10T07:55:01.091Z,15
2019-01-10T07:56:01.090Z,17
2019-01-10T07:57:06.094Z,15
2019-01-10T07:58:01.094Z,16
2019-01-10T07:59:01.090Z,17
2019-01-10T08:00:01.093Z,18
2019-01-10T08:01:01.091Z,15
2019-01-10T08:02:01.131Z,16
2019-01-10T08:03:01.110Z,15
2019-01-10T08:04:01.095Z,14
2019-01-10T08:07:01.127Z,13
2019-01-10T08:08:01.096Z,14
2019-01-10T08:10:01.094Z,13
2019-01-10T08:12:01.103Z,15
2019-01-10T08:15:01.098Z,16
2019-01-10T08:18:06.098Z,15
2019-01-10T08:19:01.095Z,16
2019-01-10T08:20:01.179Z,15
2019-01-10T08:23:01.138Z,16
2019-01-10T08:24:01.096Z,15
2019-01-10T08:25:01.097Z,14
2019-01-10T08:26:01.095Z,15
2019-01-10T08:27:01.844Z,16
2019-01-10T08:28:01.101Z,15
2019-01-10T08:29:06.097Z,16
2019-01-10T08:30:01.098Z,18
2019-01-10T08:31:01.099Z,17
2019-01-10T08:32:01.101Z,18
2019-01-10T08:33:01.103Z,21
2019-01-10T08:34:01.110Z,18
2019-01-10T08:36:01.260Z,17
2019-01-10T08:37:01.082Z,18
2019-01-10T08:38:01.085Z,17
2019-01-10T08:39:01.088Z,16
2019-01-10T08:40:01.087Z,18
2019-01-10T08:41:01.086Z,17
2019-01-10T08:44:01.085Z,16
2019-01-10T08:45:01.113Z,16
2019-01-10T08:48:01.086Z,15
2019-01-10T08:49:01.086Z,16
2019-01-10T08:50:06.091Z,14
2019-01-10T08:51:01.087Z,15
2019-01-10T08:52:01.086Z,14
2019-01-10T08:53:01.088Z,15
2019-01-10T08:55:01.091Z,16
2019-01-10T08:56:01.112Z,18
2019-01-10T08:58:01.087Z,19
2019-01-10T08:59:01.087Z,18
2019-01-10T09:00:01.091Z,18
2019-01-10T09:01:02.298Z,17
2019-01-10T09:03:01.094Z,16
2019-01-10T09:06:07.985Z,17
2019-01-10T09:07:01.124Z,18
2019-01-10T09:09:01.243Z,19
2019-01-10T09:10:01.092Z,18
2019-01-10T09:12:01.093Z,17
2019-01-10T09:14:01.095Z,16
2019-01-10T09:15:01.127Z,15
2019-01-10T09:20:01.095Z,16
2019-01-10T09:21:04.321Z,17
2019-01-10T09:24:01.098Z,16
2019-01-10T09:25:01.098Z,14
2019-01-10T09:26:01.101Z,12
2019-01-10T09:28:01.098Z,13
2019-01-10T09:29:01.101Z,16
2019-01-10T09:30:01.104Z,17
2019-01-10T09:31:02.100Z,18
2019-01-10T09:33:01.100Z,17
2019-01-10T09:34:01.100Z,16
2019-01-10T09:37:01.134Z,17
2019-01-10T09:38:01.106Z,16
2019-01-10T09:39:01.105Z,15
2019-01-10T09:40:01.102Z,16
2019-01-10T09:41:01.099Z,15
2019-01-10T09:45:01.080Z,17
2019-01-10T09:46:01.085Z,18
2019-01-10T09:47:01.081Z,19
2019-01-10T09:48:01.113Z,17
2019-01-10T09:50:01.080Z,18
2019-01-10T09:51:01.080Z,17
2019-01-10T09:55:01.084Z,16
2019-01-10T09:58:01.118Z,18
2019-01-10T10:00:01.084Z,18
2019-01-10T10:01:02.080Z,17
2019-01-10T10:02:01.091Z,18
2019-01-10T10:03:01.111Z,17
2019-01-10T10:04:01.155Z,16
2019-01-10T10:05:01.085Z,17
2019-01-10T10:10:01.092Z,18
2019-01-10T10:12:01.108Z,19
2019-01-10T10:14:01.866Z,20
2019-01-10T10:15:01.085Z,17
2019-01-10T10:16:01.082Z,15
2019-01-10T10:20:01.084Z,16
2019-01-10T10:21:01.083Z,17
2019-01-10T10:22:01.111Z,19
2019-01-10T10:23:01.088Z,20
2019-01-10T10:24:01.087Z,19
2019-01-10T10:25:01.091Z,20
2019-01-10T10:26:01.173Z,19
2019-01-10T10:27:06.094Z,18
2019-01-10T10:28:01.090Z,16
2019-01-10T10:29:01.094Z,17
2019-01-10T10:30:01.097Z,16
2019-01-10T10:33:01.096Z,17
2019-01-10T10:36:01.093Z,18
2019-01-10T10:37:06.101Z,17
2019-01-10T10:40:01.093Z,20
2019-01-10T10:41:01.097Z,19
2019-01-10T10:42:06.098Z,20
2019-01-10T10:45:01.091Z,18
2019-01-10T10:49:01.097Z,17
2019-01-10T10:51:01.093Z,16
2019-01-10T10:52:02.782Z,17
2019-01-10T10:53:01.094Z,18
2019-01-10T10:54:01.194Z,20
2019-01-10T10:55:01.102Z,19
2019-01-10T10:56:01.101Z,21
2019-01-10T10:57:01.100Z,20
2019-01-10T10:58:01.126Z,18
2019-01-10T10:59:01.100Z,17
2019-01-10T11:00:01.115Z,16
2019-01-10T11:03:01.133Z,17
2019-01-10T11:04:01.104Z,16
2019-01-10T11:07:01.100Z,15
2019-01-10T11:08:01.130Z,16
2019-01-10T11:11:01.103Z,15
2019-01-10T11:13:01.130Z,14
2019-01-10T11:14:01.109Z,15
2019-01-10T11:15:01.102Z,14
2019-01-10T11:16:10.090Z,16
2019-01-10T11:17:01.153Z,17
2019-01-10T11:19:01.083Z,16
2019-01-10T11:20:01.083Z,14
2019-01-10T11:21:01.085Z,16
2019-01-10T11:23:10.137Z,14
2019-01-10T11:24:01.083Z,15
2019-01-10T11:25:01.088Z,16
2019-01-10T11:26:01.082Z,15
2019-01-10T11:27:01.082Z,16
2019-01-10T11:28:01.083Z,15
2019-01-10T11:30:01.081Z,15
2019-01-10T11:31:01.080Z,13
2019-01-10T11:32:01.079Z,11
2019-01-10T11:33:01.082Z,13
2019-01-10T11:35:01.169Z,15
2019-01-10T11:36:01.051Z,18
2019-01-10T11:37:01.080Z,20
2019-01-10T11:38:01.077Z,19
2019-01-10T11:39:01.076Z,20
2019-01-10T11:40:01.116Z,21
2019-01-10T11:41:01.075Z,19
2019-01-10T11:42:01.076Z,18
2019-01-10T11:45:01.079Z,15
2019-01-10T11:46:01.082Z,14
2019-01-10T11:47:01.075Z,15
2019-01-10T11:50:01.081Z,16
2019-01-10T11:52:01.077Z,15
2019-01-10T11:53:01.080Z,16
2019-01-10T11:54:01.076Z,17
2019-01-10T11:56:01.077Z,18
2019-01-10T11:58:01.077Z,17
2019-01-10T11:59:01.076Z,18
2019-01-10T12:00:01.086Z,19
2019-01-10T12:01:01.209Z,18
2019-01-10T12:02:01.080Z,19
2019-01-10T12:03:01.081Z,18
2019-01-10T12:04:01.077Z,16
2019-01-10T12:05:01.078Z,15
2019-01-10T12:09:01.080Z,16
2019-01-10T12:10:01.130Z,17
2019-01-10T12:14:01.080Z,16
2019-01-10T12:15:01.079Z,16
2019-01-10T12:17:01.081Z,17
2019-01-10T12:19:01.080Z,18
2019-01-10T12:20:01.083Z,17
2019-01-10T12:21:01.082Z,18
2019-01-10T12:22:01.082Z,17
2019-01-10T12:23:01.117Z,16
2019-01-10T12:24:01.085Z,17
2019-01-10T12:25:01.084Z,16
2019-01-10T12:26:01.083Z,15
2019-01-10T12:28:01.110Z,16
2019-01-10T12:29:01.083Z,18
2019-01-10T12:30:01.084Z,17
2019-01-10T12:31:01.087Z,19
2019-01-10T12:32:01.094Z,18
2019-01-10T12:39:03.390Z,15
2019-01-10T12:41:01.091Z,16
2019-01-10T12:43:01.086Z,15
2019-01-10T12:44:01.089Z,17
2019-01-10T12:45:01.084Z,17
2019-01-10T12:46:01.087Z,16
2019-01-10T12:47:01.114Z,17
2019-01-10T12:48:01.666Z,18
2019-01-10T12:50:01.092Z,20
2019-01-10T12:52:06.088Z,18
2019-01-10T12:53:01.083Z,16
2019-01-10T12:54:01.085Z,15
2019-01-10T12:55:01.088Z,12
2019-01-10T12:56:01.117Z,14
2019-01-10T12:57:01.082Z,15
2019-01-10T12:58:01.081Z,16
2019-01-10T12:59:01.082Z,17
2019-01-10T13:00:01.085Z,20
2019-01-10T13:02:02.272Z,19
2019-01-10T13:03:01.083Z,18
2019-01-10T13:06:01.083Z,17
2019-01-10T13:08:03.551Z,18
2019-01-10T13:09:01.082Z,16
2019-01-10T13:10:01.082Z,14
2019-01-10T13:12:01.085Z,17
2019-01-10T13:13:01.243Z,16
2019-01-10T13:14:01.158Z,17
2019-01-10T13:15:01.092Z,17
2019-01-10T13:16:01.089Z,19
2019-01-10T13:17:02.114Z,16
2019-01-10T13:20:01.083Z,17
2019-01-10T13:22:01.088Z,16
2019-01-10T13:23:01.090Z,18
2019-01-10T13:25:01.092Z,17
2019-01-10T13:27:01.087Z,18
2019-01-10T13:28:01.095Z,17
2019-01-10T13:30:01.088Z,15
2019-01-10T13:32:01.089Z,14
2019-01-10T13:33:01.088Z,15
2019-01-10T13:35:01.092Z,17
2019-01-10T13:36:01.089Z,18
2019-01-10T13:37:01.091Z,17
2019-01-10T13:38:01.090Z,15
2019-01-10T13:39:01.099Z,17
2019-01-10T13:40:01.089Z,14
2019-01-10T13:41:01.089Z,13
2019-01-10T13:42:01.088Z,14
2019-01-10T13:43:01.102Z,15
2019-01-10T13:45:01.094Z,18
2019-01-10T13:46:01.089Z,16
2019-01-10T13:47:01.091Z,17
2019-01-10T13:48:01.092Z,15
2019-01-10T13:50:01.089Z,13
2019-01-10T13:51:01.089Z,14
2019-01-10T13:53:01.096Z,15
2019-01-10T13:55:01.089Z,16
2019-01-10T13:58:01.094Z,15
2019-01-10T14:00:01.092Z,15
2019-01-10T14:01:01.092Z,17
2019-01-10T14:02:01.094Z,18
2019-01-10T14:05:01.091Z,17
2019-01-10T14:06:01.093Z,16
2019-01-10T14:07:06.111Z,17
2019-01-10T14:08:01.091Z,16
2019-01-10T14:09:01.094Z,17
2019-01-10T14:10:01.103Z,16
2019-01-10T14:11:01.095Z,15
2019-01-10T14:12:06.095Z,14
2019-01-10T14:15:01.095Z,14
2019-01-10T14:16:01.095Z,16
2019-01-10T14:17:01.661Z,17
2019-01-10T14:19:01.096Z,16
2019-01-10T14:20:01.095Z,19
2019-01-10T14:21:01.096Z,18
2019-01-10T14:22:06.106Z,19
2019-01-10T14:23:01.094Z,18
2019-01-10T14:25:02.892Z,16
2019-01-10T14:27:06.103Z,15
2019-01-10T14:30:01.098Z,15
2019-01-10T14:31:01.101Z,13
2019-01-10T14:33:01.093Z,14
2019-01-10T14:34:01.098Z,15
2019-01-10T14:36:01.094Z,16
2019-01-10T14:37:01.122Z,17
2019-01-10T14:39:01.094Z,16
2019-01-10T14:40:01.095Z,17
2019-01-10T14:41:01.096Z,16
2019-01-10T14:42:06.102Z,14
2019-01-10T14:43:01.094Z,13
2019-01-10T14:44:01.093Z,14
2019-01-10T14:45:01.098Z,14
2019-01-10T14:46:01.105Z,15
2019-01-10T14:47:07.589Z,17
2019-01-10T14:49:01.101Z,18
2019-01-10T14:50:01.097Z,19
2019-01-10T14:51:01.093Z,18
2019-01-10T14:52:06.103Z,16
2019-01-10T14:53:01.095Z,17
2019-01-10T14:54:01.099Z,16
2019-01-10T14:56:01.097Z,15
2019-01-10T14:57:06.106Z,16
2019-01-10T14:59:01.086Z,14
2019-01-10T15:00:01.081Z,13
2019-01-10T15:01:01.640Z,14
2019-01-10T15:02:01.082Z,15
2019-01-10T15:04:01.083Z,17
2019-01-10T15:05:01.081Z,19
2019-01-10T15:06:01.090Z,16
2019-01-10T15:10:01.081Z,14
2019-01-10T15:12:01.080Z,15
2019-01-10T15:14:01.084Z,14
2019-01-10T15:15:01.085Z,15
2019-01-10T15:16:01.743Z,17
2019-01-10T15:17:01.081Z,16
2019-01-10T15:18:01.114Z,17
2019-01-10T15:20:01.083Z,15
2019-01-10T15:22:01.090Z,16
2019-01-10T15:23:01.080Z,17
2019-01-10T15:25:01.189Z,19
2019-01-10T15:26:01.079Z,18
2019-01-10T15:27:01.078Z,19
2019-01-10T15:28:01.080Z,18
2019-01-10T15:29:01.078Z,20
2019-01-10T15:30:01.082Z,18
2019-01-10T15:32:01.079Z,16
2019-01-10T15:33:01.080Z,18
2019-01-10T15:34:01.080Z,17
2019-01-10T15:35:01.083Z,16
2019-01-10T15:36:01.086Z,18
2019-01-10T15:38:03.319Z,17
2019-01-10T15:41:01.079Z,16
2019-01-10T15:42:01.080Z,17
2019-01-10T15:44:01.117Z,19
2019-01-10T15:45:01.081Z,19
2019-01-10T15:46:01.080Z,20
2019-01-10T15:47:01.083Z,19
2019-01-10T15:49:01.083Z,15
2019-01-10T15:51:01.083Z,13
2019-01-10T15:53:01.084Z,12
2019-01-10T15:54:01.080Z,15
2019-01-10T15:55:01.079Z,16
2019-01-10T15:56:01.081Z,17
2019-01-10T15:59:01.108Z,15
2019-01-10T16:00:01.088Z,14
2019-01-10T16:01:01.082Z,12
2019-01-10T16:03:01.098Z,11
2019-01-10T16:04:07.263Z,12
2019-01-10T16:05:01.087Z,13
2019-01-10T16:06:01.088Z,14
2019-01-10T16:09:01.087Z,13
2019-01-10T16:10:01.092Z,12
2019-01-10T16:11:01.439Z,13
2019-01-10T16:13:01.085Z,14
2019-01-10T16:14:01.095Z,15
2019-01-10T16:15:01.090Z,14
2019-01-10T16:16:02.114Z,15
2019-01-10T16:17:01.090Z,16
2019-01-10T16:18:01.088Z,17
2019-01-10T16:19:02.191Z,18
2019-01-10T16:20:06.093Z,19
2019-01-10T16:21:01.094Z,17
2019-01-10T16:22:01.091Z,16
2019-01-10T16:23:01.090Z,15
2019-01-10T16:24:01.216Z,13
2019-01-10T16:25:01.092Z,14
2019-01-10T16:28:01.089Z,13
2019-01-10T16:29:02.073Z,14
2019-01-10T16:30:01.096Z,12
2019-01-10T16:31:01.122Z,15
2019-01-10T16:32:01.090Z,14
2019-01-10T16:34:01.090Z,15
2019-01-10T16:36:01.119Z,13
2019-01-10T16:37:01.213Z,12
2019-01-10T16:38:01.091Z,14
2019-01-10T16:39:01.097Z,15
2019-01-10T16:40:01.097Z,16
2019-01-10T16:42:01.118Z,17
2019-01-10T16:45:01.096Z,16
2019-01-10T16:47:01.125Z,15
2019-01-10T16:48:01.094Z,14
2019-01-10T16:49:01.098Z,16
2019-01-10T16:51:01.143Z,17
2019-01-10T16:52:01.098Z,19
2019-01-10T16:53:01.096Z,18
2019-01-10T16:54:01.107Z,17
2019-01-10T16:55:01.099Z,18
2019-01-10T16:56:01.128Z,17
2019-01-10T16:58:01.247Z,18
2019-01-10T16:59:01.097Z,20
2019-01-10T17:00:01.097Z,19
2019-01-10T17:01:01.128Z,18
2019-01-10T17:03:01.094Z,17
2019-01-10T17:04:01.099Z,16
2019-01-10T17:07:01.116Z,18
2019-01-10T17:08:01.078Z,19
2019-01-10T17:09:01.083Z,20
2019-01-10T17:10:01.097Z,19
2019-01-10T17:12:01.116Z,18
2019-01-10T17:13:01.108Z,16
2019-01-10T17:15:01.053Z,16
2019-01-10T17:16:01.080Z,15
2019-01-10T17:17:01.081Z,16
2019-01-10T17:18:01.117Z,17
2019-01-10T17:19:01.083Z,18
2019-01-10T17:20:01.079Z,19
2019-01-10T17:24:01.089Z,18
2019-01-10T17:25:01.080Z,17
2019-01-10T17:26:01.080Z,15
2019-01-10T17:27:01.085Z,17
2019-01-10T17:30:01.080Z,18
2019-01-10T17:31:01.081Z,19
2019-01-10T17:32:01.082Z,18
2019-01-10T17:34:01.081Z,19
2019-01-10T17:35:01.082Z,17
2019-01-10T17:37:01.088Z,15
2019-01-10T17:42:01.107Z,17
2019-01-10T17:43:01.083Z,16
2019-01-10T17:44:01.082Z,17
2019-01-10T17:45:02.163Z,17
2019-01-10T17:46:01.116Z,18
2019-01-10T17:47:01.084Z,16
2019-01-10T17:48:01.099Z,15
2019-01-10T17:50:01.085Z,14
2019-01-10T17:52:01.109Z,15
2019-01-10T17:54:01.148Z,16
2019-01-10T17:56:01.111Z,15
2019-01-10T17:57:01.091Z,17
2019-01-10T17:59:01.959Z,15
2019-01-10T18:00:01.616Z,17
2019-01-10T18:01:01.085Z,16
2019-01-10T18:02:01.087Z,15
2019-01-10T18:03:01.094Z,17
2019-01-10T18:05:01.119Z,15
2019-01-10T18:06:01.085Z,17
2019-01-10T18:07:01.088Z,18
2019-01-10T18:09:01.085Z,17
2019-01-10T18:10:01.087Z,18
2019-01-10T18:11:01.120Z,16
2019-01-10T18:13:01.091Z,15
2019-01-10T18:14:02.109Z,16
2019-01-10T18:15:01.087Z,15
2019-01-10T18:16:01.088Z,18
2019-01-10T18:17:01.120Z,17
2019-01-10T18:18:01.092Z,16
2019-01-10T18:19:01.092Z,15
2019-01-10T18:20:01.089Z,17
2019-01-10T18:21:01.088Z,15
2019-01-10T18:24:01.131Z,18
2019-01-10T18:25:01.090Z,17
2019-01-10T18:28:01.118Z,16
2019-01-10T18:29:01.090Z,15
2019-01-10T18:30:01.089Z,15
2019-01-10T18:31:01.091Z,14
2019-01-10T18:33:01.130Z,15
2019-01-10T18:34:01.089Z,14
2019-01-10T18:35:02.853Z,16
2019-01-10T18:36:01.093Z,17
2019-01-10T18:38:01.126Z,19
2019-01-10T18:39:01.090Z,20
2019-01-10T18:40:01.127Z,18
2019-01-10T18:41:01.093Z,19
2019-01-10T18:42:01.091Z,18
2019-01-10T18:43:01.145Z,16
2019-01-10T18:44:01.093Z,17
2019-01-10T18:45:01.093Z,20
2019-01-10T18:46:01.096Z,18
2019-01-10T18:47:01.093Z,19
2019-01-10T18:48:01.136Z,20
2019-01-10T18:50:01.084Z,18
2019-01-10T18:51:01.080Z,16
2019-01-10T18:53:01.082Z,15
2019-01-10T18:54:01.110Z,14
2019-01-10T18:55:01.082Z,15
2019-01-10T18:56:01.082Z,16
2019-01-10T18:57:01.122Z,17
2019-01-10T19:00:01.098Z,16
2019-01-10T19:01:01.117Z,17
2019-01-10T19:02:01.088Z,18
2019-01-10T19:04:01.084Z,19
2019-01-10T19:05:01.086Z,18
2019-01-10T19:06:01.087Z,17
2019-01-10T19:07:01.119Z,14
2019-01-10T19:11:01.085Z,15
2019-01-10T19:12:01.086Z,16
2019-01-10T19:13:01.157Z,17
2019-01-10T19:14:01.087Z,18
2019-01-10T19:15:01.088Z,18
2019-01-10T19:16:01.087Z,16
2019-01-10T19:17:01.088Z,15
2019-01-10T19:20:01.152Z,17
2019-01-10T19:22:01.091Z,20
2019-01-10T19:23:01.093Z,19
2019-01-10T19:24:01.086Z,18
2019-01-10T19:25:01.123Z,17
2019-01-10T19:27:01.088Z,15
2019-01-10T19:28:01.093Z,16
2019-01-10T19:30:01.090Z,16
2019-01-10T19:33:01.387Z,15
2019-01-10T19:34:01.096Z,14
2019-01-10T19:35:01.102Z,13
2019-01-10T19:36:01.123Z,15
2019-01-10T19:38:01.199Z,14
2019-01-10T19:39:01.094Z,16
2019-01-10T19:41:01.139Z,15
2019-01-10T19:42:01.161Z,14
2019-01-10T19:43:01.093Z,16
2019-01-10T19:45:01.094Z,17
2019-01-10T19:47:01.661Z,18
2019-01-10T19:48:01.125Z,17
2019-01-10T19:49:01.094Z,15
2019-01-10T19:50:01.095Z,14
2019-01-10T19:51:01.101Z,13
2019-01-10T19:52:01.096Z,12
2019-01-10T19:54:01.120Z,14
2019-01-10T19:55:01.094Z,15
2019-01-10T19:56:01.095Z,16
2019-01-10T19:57:01.096Z,18
2019-01-10T19:59:01.118Z,19
2019-01-10T20:00:01.095Z,17
2019-01-10T20:01:01.095Z,16
2019-01-10T20:02:01.097Z,15
2019-01-10T20:03:01.136Z,14
2019-01-10T20:04:01.098Z,13
2019-01-10T20:06:01.099Z,15
2019-01-10T20:09:01.110Z,17
2019-01-10T20:10:01.088Z,16
2019-01-10T20:11:01.270Z,17
2019-01-10T20:13:01.082Z,16
2019-01-10T20:15:01.083Z,17
2019-01-10T20:16:01.081Z,16
2019-01-10T20:17:01.080Z,17
2019-01-10T20:18:01.087Z,18
2019-01-10T20:22:01.111Z,17
2019-01-10T20:23:01.082Z,16
2019-01-10T20:25:01.112Z,15
2019-01-10T20:26:01.086Z,18
2019-01-10T20:29:01.131Z,19
2019-01-10T20:30:01.084Z,18
2019-01-10T20:31:01.080Z,16
2019-01-10T20:32:01.366Z,17
2019-01-10T20:33:01.084Z,18
2019-01-10T20:34:01.107Z,16